Terminal Aerodrome Forecast
Issued by NWS

Home | Current Version | Previous Version | Text Only | Print | Product List | Glossary On
Versions: 1 2 3 4 5 6 7 8 9 10 11 12 13 14 15 16
029
FTUS43 KILX 222338
TAFBMI
TAF
KBMI 222338Z 2300/2324 09008KT P6SM SCT250
     FM230600 12008KT P6SM BKN200
     FM231400 14012KT P6SM BKN120
     FM232100 16014G22KT P6SM OVC050=

USA.gov is the U.S. government's official web portal to all federal, state and local government web resources and services.